This is the latest recevied weather packets stored in our database for station/object N2XP-2. If no packets are shown the sender has not sent any weather packets the latest 1 day(s).
| Time | Temp. | Humidity | Pressure | Rain* | Wind** | Luminosity | Snow |
|---|---|---|---|---|---|---|---|
| 1778096546 | 20.56° C | 77% | 1007.5 hPa | 0 mm | 2.24 m/s, 186° | - | - |
| 1778096477 | 20.56° C | 77% | 1007.5 hPa | 0 mm | 2.24 m/s, 186° | - | - |
| 1778095276 | 20.56° C | 78% | 1007.7 hPa | 0 mm | 1.79 m/s, 239° | - | - |
| 1778094977 | 20.56° C | 79% | 1007.7 hPa | 0 mm | 1.34 m/s, 246° | - | - |
| 1778093772 | 20.56° C | 76% | 1008.1 hPa | 0 mm | 0.89 m/s, 243° | - | - |
| 1778093473 | 20.56° C | 75% | 1008.1 hPa | 0 mm | 1.79 m/s, 248° | - | - |
| 1778092571 | 21.11° C | 73% | 1008 hPa | 0.25 mm | 1.79 m/s, 204° | - | - |
| 1778091969 | 21.11° C | 71% | 1008.1 hPa | 0.25 mm | 3.58 m/s, 262° | - | - |
| 1778090468 | 21.67° C | 72% | 1008.2 hPa | 0.25 mm | 1.79 m/s, 203° | - | - |
| 1778090076 | 21.67° C | 76% | 1008.8 hPa | 0 mm | 1.34 m/s, 205° | - | - |
| 1778090064 | 21.67° C | 77% | 1008.7 hPa | 0 mm | 0.45 m/s, 270° | - | - |
| 1778088964 | 21.67° C | 76% | 1008.7 hPa | 0 mm | 1.34 m/s, 188° | - | - |
| 1778088665 | 21.67° C | 76% | 1008.8 hPa | 0 mm | 1.34 m/s, 205° | - | - |
| 1778088159 | 21.67° C | 72% | 1009 hPa | 0 mm | 0 m/s | - | - |
| 1778087763 | 21.67° C | 77% | 1008.9 hPa | 0 mm | 0.89 m/s, 177° | - | - |
| 1778087460 | 21.67° C | 74% | 1008.9 hPa | 0 mm | 0.89 m/s, 156° | - | - |
| 1778087161 | 21.67° C | 73% | 1009 hPa | 0 mm | 0.89 m/s, 176° | - | - |
| 1778086259 | 21.67° C | 71% | 1009.4 hPa | 0 mm | 0.89 m/s, 142° | - | - |
| 1778086230 | 21.11° C | 74% | 1010 hPa | 0 mm | 0 m/s | - | - |
| 1778084811 | 21.11° C | 73% | 1010 hPa | 0 mm | 0.89 m/s, 249° | - | - |
| 1778084755 | 21.11° C | 74% | 1010 hPa | 0 mm | 0 m/s | - | - |
| 1778084456 | 21.11° C | 73% | 1010 hPa | 0 mm | 0.89 m/s, 249° | - | - |
| 1778084311 | 21.67° C | 70% | 1010 hPa | 0 mm | 1.79 m/s, 235° | - | - |
| 1778084157 | 21.11° C | 73% | 1010 hPa | 0 mm | 1.34 m/s, 219° | - | - |
| 1778082952 | 21.67° C | 70% | 1010 hPa | 0 mm | 1.79 m/s, 235° | - | - |
* Rain latest hour (hover to see other rain measurements)
** Current wind speed in m/s (hover to see current wind gust speed)